Time;durP1;ratioP1;P1;durP2;ratioP2;P2;SDS_P1;SDS_P2;PMS_P1;PMS_P2;Temp;Humidity;BMP_temperature;BMP_pressure;BME280_temperature;BME280_humidity;BME280_pressure;Samples;Min_cycle;Max_cycle;Signal;HPM_P1;HPM_P2
2022/09/05 00:02:02;;;;;;;2.13;2.07;;;21.20;49.20;;;;;;20024;6856;119450;-86
2022/09/05 00:04:50;;;;;;;2.70;2.60;;;21.10;49.40;;;;;;20463;6862;307813;-85
2022/09/05 00:07:23;;;;;;;2.47;2.37;;;21.20;49.50;;;;;;20453;6856;311994;-83
2022/09/05 00:10:15;;;;;;;2.33;2.23;;;21.40;49.10;;;;;;20674;6861;117297;-86
2022/09/05 00:12:41;;;;;;;2.60;2.40;;;21.10;49.20;;;;;;20479;6856;337157;-87
2022/09/05 00:15:26;;;;;;;2.47;2.37;;;21.20;49.50;;;;;;20660;6862;117451;-83
2022/09/05 00:17:53;;;;;;;2.50;2.30;;;21.00;49.70;;;;;;20461;6862;336103;-86
2022/09/05 00:20:22;;;;;;;2.63;2.40;;;21.00;50.20;;;;;;20496;6862;310719;-85
2022/09/05 00:23:04;;;;;;;2.40;2.30;;;21.20;50.00;;;;;;20713;6856;116660;-87
2022/09/05 00:25:33;;;;;;;2.33;2.23;;;21.00;49.50;;;;;;20666;6856;117506;-86
2022/09/05 00:28:22;;;;;;;2.43;2.33;;;20.60;50.00;;;;;;20681;6856;117272;-86
2022/09/05 00:31:10;;;;;;;2.40;2.30;;;20.30;50.50;;;;;;20634;6862;117659;-83
2022/09/05 00:33:38;;;;;;;2.40;2.30;;;20.30;51.70;;;;;;20473;6856;313213;-85
2022/09/05 00:36:07;;;;;;;2.43;2.33;;;20.30;51.20;;;;;;20662;6856;117842;-83
2022/09/05 00:38:32;;;;;;;2.77;2.53;;;20.40;51.20;;;;;;20474;6856;310128;-86
2022/09/05 00:40:58;;;;;;;2.67;2.33;;;20.60;52.10;;;;;;20680;6862;120360;-83
2022/09/05 00:43:34;;;;;;;2.80;2.60;;;20.50;52.10;;;;;;20665;6856;117151;-84
2022/09/05 00:46:14;;;;;;;4.63;2.70;;;20.20;52.40;;;;;;20433;6866;308083;-86
2022/09/05 00:49:19;;;;;;;3.43;2.63;;;20.40;52.70;;;;;;20597;6862;118346;-84
2022/09/05 00:52:02;;;;;;;3.10;2.80;;;20.30;52.40;;;;;;20478;6841;336579;-87
2022/09/05 00:54:37;;;;;;;3.42;2.72;;;20.50;52.30;;;;;;20437;6862;337176;-86
2022/09/05 00:57:35;;;;;;;3.40;2.50;;;20.80;51.90;;;;;;20668;6856;116959;-86
2022/09/05 01:00:18;;;;;;;3.20;2.90;;;20.50;51.70;;;;;;20470;6856;311556;-85
2022/09/05 01:03:08;;;;;;;3.40;2.80;;;20.50;51.70;;;;;;20489;6856;307110;-83
2022/09/05 01:05:52;;;;;;;2.70;2.57;;;20.70;51.80;;;;;;20424;6862;312716;-83
2022/09/05 01:08:51;;;;;;;2.80;2.60;;;20.50;51.50;;;;;;20694;6856;117542;-85
2022/09/05 01:11:34;;;;;;;2.70;2.50;;;20.50;51.50;;;;;;19805;6856;308047;-85
2022/09/05 01:13:59;;;;;;;5.93;2.70;;;20.60;51.70;;;;;;20633;6862;117625;-87
2022/09/05 01:16:51;;;;;;;4.43;2.43;;;20.30;51.80;;;;;;20667;6856;119485;-85
2022/09/05 01:19:19;;;;;;;5.17;2.50;;;20.00;52.40;;;;;;20443;6862;308212;-86
2022/09/05 01:21:58;;;;;;;3.00;2.70;;;20.20;53.20;;;;;;20482;6854;305641;-86
2022/09/05 01:24:41;;;;;;;3.47;2.57;;;20.70;51.50;;;;;;20480;6856;311966;-83
2022/09/05 01:27:16;;;;;;;3.97;2.37;;;20.60;51.40;;;;;;20617;6856;118210;-83
2022/09/05 01:29:42;;;;;;;2.63;2.53;;;20.00;52.90;;;;;;20607;6862;117110;-83
2022/09/05 01:32:11;;;;;;;3.00;2.80;;;20.00;52.20;;;;;;20666;6862;117524;-85
2022/09/05 01:34:53;;;;;;;2.40;2.30;;;19.70;52.70;;;;;;20705;6847;117310;-83
2022/09/05 01:37:18;;;;;;;2.57;2.37;;;19.60;53.00;;;;;;20696;6847;118075;-83
2022/09/05 01:40:07;;;;;;;3.50;2.40;;;19.40;53.10;;;;;;20700;6847;121359;-87
2022/09/05 01:43:09;;;;;;;2.90;2.70;;;19.30;53.30;;;;;;20473;6847;337199;-85
2022/09/05 01:46:14;;;;;;;2.83;2.65;;;19.60;52.90;;;;;;20494;6847;337731;-85
2022/09/05 01:48:56;;;;;;;2.77;2.60;;;20.00;52.30;;;;;;20721;6847;119011;-87
2022/09/05 01:51:25;;;;;;;2.80;2.57;;;19.90;52.70;;;;;;20685;6847;117248;-83
2022/09/05 01:53:57;;;;;;;3.15;2.50;;;19.60;52.90;;;;;;20510;6847;311836;-83
2022/09/05 01:56:45;;;;;;;4.63;2.40;;;19.70;53.10;;;;;;20686;6847;119800;-85
2022/09/05 01:59:20;;;;;;;3.03;2.73;;;19.70;53.00;;;;;;20694;6847;117414;-84
2022/09/05 02:02:17;;;;;;;3.43;3.23;;;19.50;53.30;;;;;;20688;6847;117608;-85
2022/09/05 02:04:56;;;;;;;2.80;2.60;;;19.30;54.10;;;;;;20699;6847;116475;-83
2022/09/05 02:08:02;;;;;;;2.97;2.77;;;19.10;53.70;;;;;;20677;6847;121034;-84
2022/09/05 02:11:04;;;;;;;2.87;2.67;;;19.00;53.80;;;;;;20495;6847;278829;-84
2022/09/05 02:13:34;;;;;;;3.27;3.07;;;19.80;53.50;;;;;;20496;6847;305755;-83
2022/09/05 02:16:35;;;;;;;2.77;2.67;;;19.70;52.70;;;;;;20727;6847;117208;-87
2022/09/05 02:19:07;;;;;;;2.83;2.60;;;19.30;53.30;;;;;;20724;6847;117003;-87
2022/09/05 02:21:37;;;;;;;3.30;3.10;;;19.30;53.30;;;;;;20509;6847;280756;-84
2022/09/05 02:24:13;;;;;;;3.13;3.00;;;19.80;53.50;;;;;;20523;6847;278267;-83
2022/09/05 02:26:41;;;;;;;3.07;2.87;;;19.80;52.70;;;;;;20708;6847;119032;-83
2022/09/05 02:29:10;;;;;;;3.80;3.30;;;19.60;52.70;;;;;;20466;6847;307116;-84
2022/09/05 02:31:40;;;;;;;3.70;3.40;;;19.90;53.20;;;;;;20460;6845;309093;-83
2022/09/05 02:34:11;;;;;;;3.97;3.67;;;19.90;52.50;;;;;;20506;6847;307011;-83
2022/09/05 02:36:37;;;;;;;4.47;4.17;;;20.00;52.00;;;;;;20503;6847;307603;-83
2022/09/05 02:39:05;;;;;;;4.20;3.80;;;20.10;51.90;;;;;;20701;6847;117345;-87
2022/09/05 02:41:41;;;;;;;3.80;3.50;;;19.80;52.20;;;;;;20680;6847;117801;-86
2022/09/05 02:44:20;;;;;;;4.17;3.87;;;19.50;53.00;;;;;;20499;6847;311311;-86
2022/09/05 02:47:02;;;;;;;3.60;3.40;;;19.60;53.20;;;;;;20714;6847;121335;-87
2022/09/05 02:49:30;;;;;;;3.50;3.30;;;19.50;53.10;;;;;;20681;6847;117944;-83
2022/09/05 02:51:55;;;;;;;3.33;3.12;;;19.00;53.70;;;;;;20711;6847;116240;-88
2022/09/05 02:54:23;;;;;;;3.87;3.58;;;19.00;53.70;;;;;;20536;6847;337142;-87
2022/09/05 02:57:09;;;;;;;3.40;3.13;;;19.30;53.60;;;;;;20750;6847;117556;-88
2022/09/05 03:00:15;;;;;;;3.23;3.03;;;19.20;53.40;;;;;;20768;6847;121529;-88
2022/09/05 03:03:00;;;;;;;3.10;2.90;;;19.00;53.70;;;;;;20765;6847;116660;-88
2022/09/05 03:05:25;;;;;;;2.90;2.80;;;18.80;54.00;;;;;;20723;6847;118076;-88
2022/09/05 03:08:05;;;;;;;3.77;3.43;;;18.80;54.20;;;;;;20526;6847;289235;-81
2022/09/05 03:11:13;;;;;;;3.37;3.00;;;18.80;54.20;;;;;;20715;6847;117291;-85
2022/09/05 03:14:19;;;;;;;4.10;2.90;;;18.80;54.00;;;;;;20520;6847;282500;-83
2022/09/05 03:17:07;;;;;;;2.90;2.80;;;19.10;53.80;;;;;;20729;6847;123508;-84
2022/09/05 03:19:54;;;;;;;4.80;3.23;;;19.00;53.80;;;;;;20520;6847;278268;-83
2022/09/05 03:22:59;;;;;;;3.30;3.10;;;19.20;54.30;;;;;;20682;6847;117228;-83
2022/09/05 03:25:55;;;;;;;3.80;2.80;;;19.10;54.30;;;;;;20706;6847;117377;-86
2022/09/05 03:28:27;;;;;;;3.55;3.25;;;18.80;54.60;;;;;;20512;6847;336470;-89
2022/09/05 03:31:12;;;;;;;3.55;3.28;;;19.00;54.30;;;;;;20454;6847;313037;-86
2022/09/05 03:34:11;;;;;;;3.22;3.00;;;19.30;53.70;;;;;;20495;6847;317356;-83
2022/09/05 03:37:18;;;;;;;3.30;3.10;;;19.40;53.50;;;;;;20519;6847;307051;-83
2022/09/05 03:40:06;;;;;;;4.17;3.03;;;19.60;53.30;;;;;;20700;6847;117285;-85
2022/09/05 03:42:40;;;;;;;3.10;2.90;;;19.20;53.60;;;;;;20729;6847;116702;-86
2022/09/05 03:45:18;;;;;;;3.20;3.00;;;18.70;54.20;;;;;;20682;6847;117015;-86
2022/09/05 03:48:07;;;;;;;3.07;2.77;;;18.50;54.90;;;;;;20703;6847;117563;-87
2022/09/05 03:50:36;;;;;;;3.20;2.90;;;18.20;55.20;;;;;;20530;6847;306273;-92
2022/09/05 03:53:21;;;;;;;3.20;3.00;;;18.50;55.40;;;;;;20472;6847;311832;-86
2022/09/05 03:56:18;;;;;;;3.00;2.90;;;18.80;54.50;;;;;;20712;6847;117911;-88
2022/09/05 03:59:02;;;;;;;3.78;3.42;;;18.70;54.40;;;;;;20450;6847;318912;-86
2022/09/05 04:01:46;;;;;;;3.30;3.10;;;18.80;54.20;;;;;;20477;6847;308429;-86
2022/09/05 04:04:41;;;;;;;3.28;3.08;;;19.10;54.40;;;;;;20495;6847;341195;-88
2022/09/05 04:07:10;;;;;;;3.70;3.40;;;19.30;53.60;;;;;;20492;6847;282059;-86
2022/09/05 04:09:52;;;;;;;3.75;3.45;;;19.50;53.10;;;;;;20484;6847;281436;-86
2022/09/05 04:12:18;;;;;;;3.23;3.10;;;19.60;53.00;;;;;;20708;6847;117663;-87
2022/09/05 04:14:46;;;;;;;3.17;3.07;;;19.30;53.30;;;;;;20632;6847;117279;-90
2022/09/05 04:17:39;;;;;;;5.00;4.10;;;18.90;54.00;;;;;;20444;6847;333065;-86
2022/09/05 04:20:41;;;;;;;4.60;4.10;;;18.90;54.20;;;;;;20497;6847;311724;-86
2022/09/05 04:23:46;;;;;;;4.30;3.90;;;19.20;54.20;;;;;;20499;6847;337188;-86
2022/09/05 04:26:34;;;;;;;4.13;3.93;;;19.30;53.80;;;;;;20702;6847;117583;-92
2022/09/05 04:29:27;;;;;;;5.40;3.80;;;19.00;54.10;;;;;;20715;6847;117646;-87
2022/09/05 04:31:55;;;;;;;3.90;3.70;;;18.60;54.90;;;;;;20722;6847;117193;-87
2022/09/05 04:34:41;;;;;;;4.27;4.07;;;18.30;55.50;;;;;;20443;6847;308243;-86
2022/09/05 04:37:07;;;;;;;4.20;4.00;;;18.50;55.90;;;;;;20718;6847;117143;-87
2022/09/05 04:39:35;;;;;;;4.70;4.40;;;18.60;55.80;;;;;;20320;6847;282849;-87
2022/09/05 04:42:03;;;;;;;4.68;4.30;;;18.60;55.80;;;;;;20501;6847;311894;-87
2022/09/05 04:44:42;;;;;;;4.80;4.35;;;19.20;54.90;;;;;;20479;6847;289278;-87
2022/09/05 04:47:16;;;;;;;4.70;4.30;;;19.10;54.60;;;;;;20359;6847;119445;-89
2022/09/05 04:49:50;;;;;;;4.43;4.10;;;19.00;54.70;;;;;;20547;6847;117685;-86
2022/09/05 04:52:39;;;;;;;4.47;4.18;;;18.70;55.10;;;;;;20487;6847;337184;-90
2022/09/05 04:55:10;;;;;;;4.03;3.83;;;18.80;55.00;;;;;;20496;6846;281021;-91
2022/09/05 04:57:59;;;;;;;4.40;4.10;;;19.20;54.00;;;;;;20492;6847;307724;-91
2022/09/05 05:00:31;;;;;;;4.30;4.00;;;19.50;53.20;;;;;;20500;6847;313037;-91
2022/09/05 05:02:57;;;;;;;4.00;3.80;;;19.60;52.80;;;;;;20476;6847;307763;-91
2022/09/05 05:05:30;;;;;;;4.33;3.90;;;19.60;53.10;;;;;;20661;6847;117306;-91
2022/09/05 05:07:59;;;;;;;3.63;3.43;;;19.50;53.00;;;;;;20691;6847;117323;-88
2022/09/05 05:10:41;;;;;;;4.13;3.77;;;19.20;53.60;;;;;;20683;6847;117660;-87
2022/09/05 05:13:22;;;;;;;5.23;4.93;;;18.90;54.20;;;;;;20686;6847;117269;-87
2022/09/05 05:15:48;;;;;;;3.83;3.60;;;18.70;54.60;;;;;;20686;6847;124275;-91
2022/09/05 05:18:20;;;;;;;3.80;3.40;;;18.50;54.90;;;;;;20672;6847;124106;-92
2022/09/05 05:21:00;;;;;;;3.92;3.53;;;18.40;55.20;;;;;;20426;6847;338208;-91
2022/09/05 05:23:36;;;;;;;3.93;3.47;;;18.70;55.40;;;;;;20671;6847;144983;-86
2022/09/05 05:26:09;;;;;;;4.33;3.97;;;18.80;55.20;;;;;;20704;6847;122603;-86
2022/09/05 05:28:52;;;;;;;4.62;4.30;;;18.60;55.30;;;;;;20510;6847;278810;-90
2022/09/05 05:31:24;;;;;;;5.20;4.90;;;19.30;54.80;;;;;;19402;7208;331829;-86
2022/09/05 05:33:52;;;;;;;4.23;4.00;;;19.20;54.70;;;;;;20195;6862;117532;-90
2022/09/05 05:36:24;;;;;;;4.27;4.07;;;19.20;54.70;;;;;;20705;6847;117260;-87
2022/09/05 05:39:04;;;;;;;4.73;4.37;;;18.70;55.60;;;;;;20664;6847;117051;-89
2022/09/05 05:41:36;;;;;;;4.57;4.27;;;18.70;55.50;;;;;;20520;6847;119295;-88
2022/09/05 05:44:08;;;;;;;4.25;4.05;;;18.60;55.80;;;;;;20483;6847;336723;-87
2022/09/05 05:46:34;;;;;;;4.43;4.23;;;18.90;55.80;;;;;;20686;6847;116844;-88
2022/09/05 05:49:16;;;;;;;4.27;3.97;;;19.00;55.60;;;;;;20779;6847;116180;-88
2022/09/05 05:51:52;;;;;;;3.93;3.63;;;18.90;55.70;;;;;;20570;6847;117784;-89
2022/09/05 05:54:31;;;;;;;5.13;4.73;;;18.80;55.90;;;;;;20507;6847;277782;-89
2022/09/05 05:57:16;;;;;;;4.30;4.00;;;19.10;55.60;;;;;;20696;6847;116493;-87
2022/09/05 05:59:51;;;;;;;4.00;3.80;;;19.20;55.40;;;;;;20716;6847;117341;-87
2022/09/05 06:03:01;;;;;;;4.33;4.00;;;19.00;55.60;;;;;;20711;6847;117757;-87
2022/09/05 06:05:49;;;;;;;4.40;4.10;;;18.90;55.90;;;;;;20489;6847;277756;-90
2022/09/05 06:08:28;;;;;;;4.97;3.93;;;19.30;55.80;;;;;;20774;6846;116294;-87
2022/09/05 06:11:01;;;;;;;4.35;4.05;;;19.30;55.80;;;;;;19932;6847;337688;-87
2022/09/05 06:13:51;;;;;;;4.93;4.05;;;19.60;55.50;;;;;;20463;6847;337700;-87
2022/09/05 06:16:38;;;;;;;3.92;3.72;;;20.10;54.70;;;;;;20442;6847;278912;-87
2022/09/05 06:19:24;;;;;;;4.18;3.87;;;20.50;54.00;;;;;;20476;6847;337759;-87
2022/09/05 06:22:19;;;;;;;4.20;3.80;;;20.90;53.40;;;;;;20457;6847;278038;-86
2022/09/05 06:25:24;;;;;;;3.67;3.47;;;21.10;53.00;;;;;;20500;6847;286525;-86
2022/09/05 06:27:53;;;;;;;4.10;3.70;;;21.40;52.50;;;;;;20516;6847;307573;-87
2022/09/05 06:30:20;;;;;;;4.20;3.53;;;21.70;51.80;;;;;;20690;6847;122475;-87
2022/09/05 06:33:07;;;;;;;3.78;3.47;;;21.50;51.90;;;;;;20504;6847;307281;-90
2022/09/05 06:35:39;;;;;;;5.53;3.37;;;21.60;51.70;;;;;;20700;6847;120074;-87
2022/09/05 06:38:23;;;;;;;3.50;3.20;;;21.40;52.00;;;;;;20719;6847;124128;-87
2022/09/05 06:41:28;;;;;;;3.67;3.43;;;21.20;52.50;;;;;;20518;6847;307870;-88
2022/09/05 06:44:30;;;;;;;3.93;3.63;;;21.30;52.50;;;;;;20729;6847;117765;-88
2022/09/05 06:46:52;;;;;;;3.63;3.40;;;21.20;52.60;;;;;;20718;6847;117795;-90
2022/09/05 06:49:38;;;;;;;3.85;3.42;;;21.00;53.00;;;;;;20487;6847;308697;-87
2022/09/05 06:52:27;;;;;;;9.35;3.67;;;21.20;52.80;;;;;;20518;6847;340595;-87
2022/09/05 06:55:29;;;;;;;3.50;3.30;;;21.60;52.40;;;;;;20729;6847;117647;-87
2022/09/05 06:58:00;;;;;;;3.50;3.20;;;21.50;52.30;;;;;;20729;6847;117765;-88
2022/09/05 07:00:49;;;;;;;3.67;3.37;;;21.40;52.70;;;;;;20646;6847;122994;-87
2022/09/05 07:03:27;;;;;;;5.53;3.73;;;21.30;53.00;;;;;;20568;6847;279694;-91
2022/09/05 07:05:56;;;;;;;3.70;3.40;;;21.70;52.80;;;;;;20531;6847;277670;-91
2022/09/05 07:08:22;;;;;;;3.77;3.47;;;22.20;51.90;;;;;;20744;6847;116984;-87
2022/09/05 07:10:47;;;;;;;3.43;3.00;;;22.30;51.90;;;;;;20770;6847;118337;-90
2022/09/05 07:13:13;;;;;;;3.97;3.50;;;22.20;52.10;;;;;;20548;6847;280742;-91
2022/09/05 07:15:55;;;;;;;3.90;3.60;;;22.50;51.60;;;;;;20579;6847;338099;-91
2022/09/05 07:18:51;;;;;;;5.57;3.20;;;22.90;50.90;;;;;;20786;6846;67331;-91
2022/09/05 07:21:30;;;;;;;3.40;3.20;;;23.00;50.80;;;;;;20767;6847;143602;-92
2022/09/05 07:23:54;;;;;;;3.33;3.03;;;23.00;51.20;;;;;;20743;6847;116380;-91
2022/09/05 07:26:19;;;;;;;3.53;3.33;;;22.90;51.50;;;;;;20779;6847;116159;-90
2022/09/05 07:28:45;;;;;;;3.30;3.10;;;23.00;51.50;;;;;;20556;6847;278076;-93
2022/09/05 07:31:21;;;;;;;3.42;3.20;;;23.40;50.50;;;;;;20554;6847;277127;-89
2022/09/05 07:33:47;;;;;;;3.63;3.30;;;23.80;50.00;;;;;;20364;6847;305853;-87
2022/09/05 07:36:11;;;;;;;3.67;3.47;;;24.30;49.00;;;;;;20736;6847;117249;-87
2022/09/05 07:38:37;;;;;;;3.50;3.20;;;24.40;49.20;;;;;;20486;6847;299181;-87
2022/09/05 07:41:03;;;;;;;4.30;3.20;;;24.60;48.40;;;;;;20742;6847;117232;-86
2022/09/05 07:43:29;;;;;;;3.00;2.80;;;24.60;48.70;;;;;;20659;6847;124720;-88
2022/09/05 07:45:54;;;;;;;3.23;3.03;;;24.60;49.00;;;;;;20689;6847;123924;-87
2022/09/05 07:48:20;;;;;;;3.30;3.10;;;24.90;48.40;;;;;;20509;6847;277836;-91
2022/09/05 07:50:56;;;;;;;3.57;3.10;;;24.80;48.30;;;;;;20710;6847;118798;-86
2022/09/05 07:53:23;;;;;;;3.72;3.25;;;25.00;48.30;;;;;;20512;6847;306319;-87
2022/09/05 07:55:57;;;;;;;3.37;2.87;;;25.40;46.60;;;;;;20805;6847;66356;-86
2022/09/05 07:58:24;;;;;;;3.00;2.80;;;25.40;46.90;;;;;;20579;6847;336498;-89
2022/09/05 08:00:50;;;;;;;3.27;3.07;;;25.70;46.10;;;;;;20570;6847;310628;-87
2022/09/05 08:03:16;;;;;;;3.10;2.90;;;26.00;46.10;;;;;;20774;6847;116724;-87
2022/09/05 08:05:41;;;;;;;3.12;2.60;;;26.20;46.10;;;;;;20574;6847;306533;-87
2022/09/05 08:08:07;;;;;;;2.77;2.57;;;26.30;45.20;;;;;;20813;6847;66631;-86
2022/09/05 08:10:32;;;;;;;4.25;2.70;;;26.40;45.70;;;;;;20542;6847;306196;-91
2022/09/05 08:13:02;;;;;;;2.80;2.60;;;26.60;45.70;;;;;;20578;6847;277069;-87
2022/09/05 08:15:41;;;;;;;;;;;;;;;;;;;;;
2022/09/05 08:18:10;;;;;;;2.80;2.70;;;27.40;43.50;;;;;;20778;6732;275692;-89
2022/09/05 08:20:52;;;;;;;2.70;2.50;;;27.70;41.70;;;;;;20812;6732;274699;-86
2022/09/05 08:23:47;;;;;;;3.10;2.67;;;28.00;41.20;;;;;;20825;6742;116156;-86
2022/09/05 08:26:36;;;;;;;2.97;2.70;;;27.90;42.10;;;;;;20804;6727;305617;-86
2022/09/05 08:29:21;;;;;;;3.90;2.50;;;28.10;41.60;;;;;;20246;6754;306080;-86
2022/09/05 08:32:00;;;;;;;2.77;2.57;;;28.30;41.30;;;;;;20328;6744;304033;-89
2022/09/05 08:34:49;;;;;;;4.30;2.37;;;28.40;41.60;;;;;;20759;6741;116041;-90
2022/09/05 08:37:25;;;;;;;4.37;2.70;;;28.40;41.50;;;;;;20645;6761;290525;-86
2022/09/05 09:15:35;;;;;;;3.30;2.50;;;30.60;37.80;;;;;;20824;6512;86452;-86
2022/09/05 09:18:01;;;;;;;5.50;2.40;;;30.40;38.60;;;;;;20506;6848;307422;-86
2022/09/05 09:20:53;;;;;;;3.87;2.30;;;30.50;39.50;;;;;;20446;6857;278019;-85
2022/09/05 09:23:39;;;;;;;4.53;2.33;;;30.70;38.30;;;;;;20504;6838;280396;-91
2022/09/05 09:26:17;;;;;;;4.20;3.80;;;30.80;37.90;;;;;;20726;6843;117273;-86
2022/09/05 09:28:56;;;;;;;3.63;3.23;;;30.70;38.10;;;;;;20466;6843;278448;-86
2022/09/05 09:31:37;;;;;;;2.50;2.30;;;30.70;37.70;;;;;;20493;6843;307701;-86
2022/09/05 09:34:24;;;;;;;2.47;2.37;;;30.80;36.90;;;;;;20695;6843;117932;-86
2022/09/05 09:37:07;;;;;;;3.47;2.30;;;30.60;37.30;;;;;;20702;6854;118040;-86
2022/09/05 09:39:50;;;;;;;2.70;2.50;;;30.30;38.00;;;;;;20665;6854;117190;-86
2022/09/05 09:42:22;;;;;;;2.80;2.33;;;30.10;38.90;;;;;;20484;6852;307387;-86
2022/09/05 09:45:29;;;;;;;2.50;2.30;;;30.30;39.40;;;;;;20671;6854;117163;-86
2022/09/05 09:48:15;;;;;;;5.20;2.30;;;30.50;39.20;;;;;;20480;6854;307079;-86
2022/09/05 09:51:13;;;;;;;2.00;1.80;;;30.80;39.00;;;;;;20698;6854;117035;-85
2022/09/05 09:54:05;;;;;;;2.53;2.13;;;30.80;39.00;;;;;;19879;6847;117380;-87
2022/09/05 09:56:40;;;;;;;2.70;2.50;;;30.80;39.30;;;;;;20746;6839;117104;-87
2022/09/05 09:59:09;;;;;;;3.53;2.33;;;30.70;39.50;;;;;;20712;6839;117410;-85
2022/09/05 10:02:19;;;;;;;3.00;2.27;;;30.60;39.30;;;;;;20727;6839;124047;-89
2022/09/05 10:05:20;;;;;;;2.43;2.33;;;30.50;39.70;;;;;;20713;6842;117793;-88
2022/09/05 10:08:10;;;;;;;3.53;2.33;;;30.50;39.40;;;;;;20521;6842;335355;-87
2022/09/05 10:11:02;;;;;;;4.27;2.37;;;30.90;38.60;;;;;;20559;6842;122922;-87
2022/09/05 10:14:04;;;;;;;2.53;2.33;;;31.00;38.70;;;;;;20704;6842;117481;-87
2022/09/05 10:16:33;;;;;;;3.20;2.40;;;31.00;38.60;;;;;;20512;6844;278480;-85
2022/09/05 10:19:34;;;;;;;2.30;2.20;;;31.30;38.30;;;;;;20699;6844;117345;-85
2022/09/05 10:22:20;;;;;;;2.20;2.10;;;31.40;37.20;;;;;;20719;6843;117254;-84
2022/09/05 10:24:52;;;;;;;2.30;2.13;;;31.20;38.10;;;;;;20526;6842;309695;-85
2022/09/05 10:27:21;;;;;;;2.20;2.10;;;31.40;36.80;;;;;;19877;6824;277565;-87
2022/09/05 10:30:05;;;;;;;2.43;2.30;;;31.60;37.40;;;;;;20190;6837;116385;-84
2022/09/05 10:32:38;;;;;;;2.93;2.20;;;31.70;37.70;;;;;;20546;6843;306249;-83
2022/09/05 10:35:26;;;;;;;5.18;2.20;;;31.80;35.60;;;;;;20577;6843;307821;-84
2022/09/05 10:38:12;;;;;;;2.10;2.00;;;32.10;34.70;;;;;;20759;6843;117405;-83
2022/09/05 10:40:38;;;;;;;1.87;1.77;;;32.00;35.00;;;;;;20720;6843;122963;-84
2022/09/05 10:43:15;;;;;;;2.13;2.03;;;31.80;35.70;;;;;;20714;6843;117353;-87
2022/09/05 10:45:46;;;;;;;2.33;2.20;;;31.70;35.60;;;;;;20644;6854;117428;-87
2022/09/05 10:48:31;;;;;;;2.20;2.10;;;31.60;35.40;;;;;;20697;6843;117505;-86
2022/09/05 10:51:00;;;;;;;2.07;1.90;;;31.60;35.70;;;;;;20505;6843;278781;-87
2022/09/05 10:53:29;;;;;;;2.00;1.90;;;31.90;34.90;;;;;;20470;6843;307473;-85
2022/09/05 10:56:07;;;;;;;2.40;1.70;;;32.30;31.60;;;;;;20712;6843;118293;-86
2022/09/05 10:58:33;;;;;;;1.80;1.70;;;32.40;32.10;;;;;;20500;6843;282290;-86
2022/09/05 11:01:05;;;;;;;1.93;1.83;;;32.40;29.10;;;;;;20499;6843;282704;-87
2022/09/05 11:03:41;;;;;;;1.83;1.73;;;32.50;30.80;;;;;;20453;6843;337140;-87
2022/09/05 11:06:07;;;;;;;2.00;1.90;;;32.60;30.30;;;;;;20711;6843;117161;-87
2022/09/05 11:08:57;;;;;;;1.80;1.70;;;32.60;30.30;;;;;;20669;6854;117199;-87
2022/09/05 11:11:25;;;;;;;2.10;1.90;;;32.40;31.50;;;;;;20485;6843;311911;-87
2022/09/05 11:13:55;;;;;;;2.00;1.80;;;32.50;32.60;;;;;;20497;6843;279149;-86
2022/09/05 11:16:40;;;;;;;2.00;1.90;;;33.00;30.70;;;;;;20493;6843;296332;-87
2022/09/05 11:19:18;;;;;;;2.13;2.00;;;32.90;30.60;;;;;;19872;6843;119596;-87
2022/09/05 11:21:57;;;;;;;2.33;2.20;;;32.80;30.70;;;;;;20720;6836;124807;-88
2022/09/05 11:24:30;;;;;;;2.03;1.92;;;32.60;30.90;;;;;;20494;6840;308325;-87
2022/09/05 11:26:55;;;;;;;2.13;2.03;;;32.50;32.00;;;;;;20716;6835;121423;-86
2022/09/05 11:29:21;;;;;;;2.50;1.90;;;32.50;31.90;;;;;;20503;6835;307283;-86
2022/09/05 11:32:26;;;;;;;2.53;1.97;;;32.50;32.40;;;;;;20698;6835;117524;-87
2022/09/05 11:35:15;;;;;;;1.97;1.87;;;32.60;32.10;;;;;;20535;6835;307339;-86
2022/09/05 11:37:50;;;;;;;2.37;2.10;;;32.70;31.90;;;;;;20541;6833;279590;-85
2022/09/05 11:40:22;;;;;;;2.47;2.00;;;32.90;30.60;;;;;;20521;6835;293037;-86
2022/09/05 11:42:54;;;;;;;2.10;1.98;;;33.10;30.30;;;;;;20524;6835;336430;-84
2022/09/05 11:45:33;;;;;;;3.00;1.80;;;33.20;31.10;;;;;;20710;6835;117284;-85
2022/09/05 11:48:02;;;;;;;1.90;1.80;;;33.00;31.10;;;;;;20526;6835;280053;-85
2022/09/05 11:50:44;;;;;;;1.53;1.50;;;32.90;29.70;;;;;;20758;6835;120586;-85
2022/09/05 11:53:30;;;;;;;2.10;1.90;;;32.80;29.90;;;;;;20500;6835;295438;-86
2022/09/05 11:56:35;;;;;;;2.07;1.70;;;32.80;29.30;;;;;;20717;6835;117681;-87
2022/09/05 11:59:07;;;;;;;1.87;1.77;;;32.70;29.20;;;;;;20751;6835;118199;-87
2022/09/05 12:01:59;;;;;;;4.12;1.77;;;32.40;29.10;;;;;;20518;6835;307947;-86
2022/09/05 12:04:31;;;;;;;3.10;2.03;;;32.40;30.10;;;;;;20129;6835;120623;-88
2022/09/05 12:07:14;;;;;;;2.00;1.90;;;32.40;29.70;;;;;;20717;6835;117523;-86
2022/09/05 12:09:46;;;;;;;2.67;1.70;;;32.20;29.70;;;;;;20730;6835;122862;-87
2022/09/05 12:12:28;;;;;;;1.83;1.73;;;32.00;30.40;;;;;;20720;6835;121166;-87
2022/09/05 12:15:15;;;;;;;1.77;1.67;;;31.90;30.00;;;;;;20521;6835;277621;-87
2022/09/05 12:18:19;;;;;;;1.63;1.53;;;32.10;30.00;;;;;;20733;6835;123749;-86
2022/09/05 12:21:04;;;;;;;1.50;1.50;;;32.10;29.40;;;;;;20593;6835;280588;-88
2022/09/05 12:23:33;;;;;;;1.90;1.80;;;32.30;27.80;;;;;;20489;6835;307023;-87
2022/09/05 12:26:18;;;;;;;2.00;1.90;;;32.50;28.00;;;;;;20741;6835;117790;-87
2022/09/05 12:28:45;;;;;;;2.07;1.97;;;32.20;29.10;;;;;;20740;6835;117847;-88
2022/09/05 12:31:30;;;;;;;2.03;1.90;;;32.30;29.10;;;;;;20718;6835;117201;-86
2022/09/05 12:33:55;;;;;;;2.65;2.00;;;32.10;29.20;;;;;;20520;6835;312510;-86
2022/09/05 12:36:34;;;;;;;3.50;1.80;;;32.20;28.70;;;;;;20531;6835;307118;-86
2022/09/05 12:39:02;;;;;;;1.90;1.80;;;32.50;28.80;;;;;;20510;6835;278422;-85
2022/09/05 12:41:29;;;;;;;2.17;1.87;;;32.70;28.60;;;;;;20724;6835;122905;-86
2022/09/05 12:43:54;;;;;;;1.83;1.83;;;32.70;28.60;;;;;;20503;6835;297377;-86
2022/09/05 12:46:23;;;;;;;2.00;1.90;;;32.70;28.20;;;;;;20781;6835;66696;-87
2022/09/05 12:48:55;;;;;;;2.27;1.97;;;32.70;28.90;;;;;;20511;6833;289506;-85
2022/09/05 12:51:22;;;;;;;1.90;1.80;;;32.70;27.70;;;;;;20709;6835;118012;-85
2022/09/05 12:53:50;;;;;;;2.05;1.87;;;32.60;28.30;;;;;;20531;6835;340235;-85
2022/09/05 12:56:26;;;;;;;2.00;1.80;;;32.80;29.60;;;;;;20500;6835;308823;-85
2022/09/05 12:58:51;;;;;;;1.97;1.77;;;33.00;28.00;;;;;;20720;6835;117476;-87
2022/09/05 13:01:17;;;;;;;1.87;1.73;;;32.90;28.10;;;;;;20737;6835;117949;-86
2022/09/05 13:03:56;;;;;;;2.07;1.97;;;32.60;28.50;;;;;;20696;6838;118085;-85
2022/09/05 13:06:25;;;;;;;2.03;1.93;;;32.50;29.20;;;;;;20736;6836;117082;-84
2022/09/05 13:08:50;;;;;;;1.97;1.87;;;32.30;29.40;;;;;;20736;6833;117368;-84
2022/09/05 13:11:16;;;;;;;2.40;2.20;;;32.10;29.20;;;;;;20537;6840;310740;-85
2022/09/05 13:13:41;;;;;;;2.10;1.90;;;32.20;28.70;;;;;;20732;6835;124649;-86
2022/09/05 13:16:09;;;;;;;2.20;2.00;;;32.20;29.30;;;;;;20559;6835;310968;-85
2022/09/05 13:18:37;;;;;;;2.10;2.00;;;32.40;30.00;;;;;;20560;6835;277599;-85
2022/09/05 13:21:07;;;;;;;2.50;2.22;;;32.60;29.10;;;;;;20535;6835;305510;-86
2022/09/05 13:23:56;;;;;;;2.17;2.00;;;32.80;28.50;;;;;;20507;6835;307456;-87
2022/09/05 13:26:22;;;;;;;2.47;2.10;;;32.90;28.50;;;;;;20152;6835;299317;-85
2022/09/05 13:29:11;;;;;;;2.33;2.13;;;32.80;28.10;;;;;;20764;6835;117150;-86
2022/09/05 13:31:52;;;;;;;2.17;2.03;;;32.70;28.60;;;;;;20738;6835;117518;-87
2022/09/05 13:34:42;;;;;;;2.00;1.90;;;32.40;28.80;;;;;;20734;6835;117577;-86
2022/09/05 13:37:09;;;;;;;2.83;2.30;;;32.10;29.20;;;;;;20738;6835;117074;-86
2022/09/05 13:39:36;;;;;;;2.30;2.10;;;31.80;29.50;;;;;;20457;6835;309602;-88
2022/09/05 13:42:02;;;;;;;2.40;2.17;;;31.90;29.00;;;;;;20613;6835;124529;-86
2022/09/05 13:44:28;;;;;;;2.07;1.83;;;31.90;29.30;;;;;;20757;6835;117005;-86
2022/09/05 13:47:15;;;;;;;3.15;2.08;;;31.80;29.80;;;;;;20556;6835;277035;-86
2022/09/05 13:49:43;;;;;;;2.10;2.00;;;31.90;30.00;;;;;;20546;6835;311134;-86
2022/09/05 13:52:06;;;;;;;2.37;2.17;;;32.20;29.00;;;;;;20718;6835;117676;-86
2022/09/05 13:54:45;;;;;;;2.00;1.73;;;32.10;29.20;;;;;;20732;6835;117571;-87
2022/09/05 13:57:15;;;;;;;1.97;1.87;;;31.80;29.40;;;;;;20763;6835;116138;-86
2022/09/05 13:59:36;;;;;;;2.83;2.63;;;31.50;29.90;;;;;;20701;6833;118147;-86
2022/09/05 14:02:25;;;;;;;2.27;2.07;;;31.30;30.20;;;;;;20765;6834;117277;-85
2022/09/05 14:05:14;;;;;;;2.03;1.80;;;31.10;30.10;;;;;;20736;6835;120863;-86
2022/09/05 14:08:16;;;;;;;2.50;2.30;;;31.10;30.30;;;;;;20739;6835;120353;-86
2022/09/05 14:10:59;;;;;;;2.07;1.80;;;30.90;30.10;;;;;;20744;6835;117321;-86
2022/09/05 14:13:23;;;;;;;2.20;2.10;;;30.90;30.50;;;;;;20539;6835;311342;-87